Date,TemperatureHighF,TemperatureAvgF,TemperatureLowF,DewpointHighF,DewpointAvgF,DewpointLowF,HumidityHigh,HumidityAvg,HumidityLow,PressureMaxIn,PressureMinIn,WindSpeedMaxMPH,WindSpeedAvgMPH,GustSpeedMaxMPH,PrecipitationSumIn
2013-8-1,96,85,78,79,75,72,90,72,54,30.03,29.93,12,0,12,0.00
2013-8-2,96,84,73,77,74,71,93,74,51,30.02,29.96,6,0,6,0.00
2013-8-3,94,84,77,78,76,74,91,76,55,30.08,30.00,7,0,7,0.00
2013-8-4,94,83,76,81,76,73,94,82,57,30.11,30.01,11,0,11,0.19
2013-8-5,97,83,75,82,76,72,96,81,46,30.06,29.95,8,0,8,0.08
2013-8-6,96,84,76,78,76,74,95,77,52,30.01,29.91,16,0,16,0.00
2013-8-7,98,86,76,78,75,73,93,72,49,30.00,29.88,5,0,5,0.00
2013-8-8,99,87,77,78,76,74,93,73,47,29.99,29.89,8,0,8,0.00
2013-8-9,98,84,76,79,76,73,94,80,48,30.06,29.93,12,0,12,0.11
2013-8-10,94,80,75,81,76,73,96,87,58,30.12,30.03,8,0,8,0.91
2013-8-11,91,81,75,78,74,72,96,81,57,30.15,30.05,6,0,6,0.00
2013-8-12,94,82,75,78,74,71,95,80,53,30.14,30.00,6,0,6,0.00
2013-8-13,86,77,74,79,74,71,95,91,77,30.06,29.95,11,0,11,0.44
2013-8-14,86,78,73,76,73,69,96,85,65,30.03,29.95,12,0,12,0.16
2013-8-15,87,76,67,73,67,64,92,75,55,30.05,29.97,9,0,9,0.00
2013-8-16,87,76,68,74,68,64,95,78,54,30.04,29.96,9,0,9,1.04
2013-8-17,83,74,68,73,69,67,96,87,61,30.07,30.01,12,0,12,0.00
2013-8-18,79,73,69,72,70,67,94,88,73,30.10,30.03,14,0,14,0.00
2013-8-19,86,76,72,75,72,70,93,86,64,30.09,30.01,7,0,7,0.01
2013-8-20,91,79,70,77,73,68,96,83,60,30.10,30.02,8,0,8,0.01
2013-8-21,89,80,73,79,75,71,96,86,66,30.17,30.07,11,0,11,0.00
2013-8-22,92,80,72,79,74,70,95,85,57,30.14,30.01,13,0,13,0.44
2013-8-23,92,79,73,78,75,72,97,87,61,30.07,29.98,16,0,16,0.10
2013-8-24,89,78,73,80,74,71,96,89,64,30.16,30.03,18,0,18,0.20
2013-8-25,88,78,72,77,73,70,96,86,67,30.24,30.15,12,0,12,0.00
2013-8-26,89,78,70,72,68,64,95,74,49,30.26,30.14,11,0,11,0.00
2013-8-27,88,75,64,69,65,62,94,73,48,30.19,30.08,7,0,7,0.00
2013-8-28,88,76,64,70,66,62,95,73,49,30.14,30.05,7,0,7,0.00
2013-8-29,92,79,68,73,69,65,94,74,50,30.13,30.01,7,0,7,0.00
2013-8-30,93,82,71,75,71,68,92,71,50,30.07,29.94,7,0,7,0.00
2013-8-31,95,83,73,76,72,70,92,73,49,30.00,29.88,6,0,6,0.00